Time;durP1;ratioP1;P1;durP2;ratioP2;P2;SDS_P1;SDS_P2;PMS_P1;PMS_P2;Temp;Humidity;BMP_temperature;BMP_pressure;BME280_temperature;BME280_humidity;BME280_pressure;Samples;Min_cycle;Max_cycle;Signal;HPM_P1;HPM_P2
2021/07/11 00:01:59;;;;;;;4.43;4.03;;;22.70;99.90;;;;;;5055058;28;20457;-82
2021/07/11 00:04:25;;;;;;;4.70;3.33;;;22.60;99.90;;;;;;5055159;28;20924;-82
2021/07/11 00:06:52;;;;;;;2.97;2.67;;;22.60;99.90;;;;;;5062855;28;20469;-81
2021/07/11 00:09:19;;;;;;;4.03;3.70;;;22.60;99.90;;;;;;5071220;28;20808;-82
2021/07/11 00:11:45;;;;;;;5.03;4.10;;;22.60;99.90;;;;;;5056179;28;20777;-83
2021/07/11 00:14:13;;;;;;;4.53;4.17;;;22.60;99.90;;;;;;5052985;28;20778;-83
2021/07/11 00:16:40;;;;;;;4.13;3.73;;;22.50;99.90;;;;;;5059739;28;20441;-82
2021/07/11 00:19:07;;;;;;;4.07;3.67;;;22.60;99.90;;;;;;5061205;28;20450;-80
2021/07/11 00:21:34;;;;;;;4.73;4.13;;;22.60;99.90;;;;;;5052907;28;20191;-80
2021/07/11 00:24:00;;;;;;;4.22;3.90;;;22.80;99.90;;;;;;5057804;28;20501;-82
2021/07/11 00:26:27;;;;;;;3.50;3.17;;;22.40;99.90;;;;;;5073606;28;20199;-85
2021/07/11 00:28:54;;;;;;;3.92;3.53;;;22.50;99.90;;;;;;5074251;28;20445;-84
2021/07/11 00:31:22;;;;;;;4.10;3.70;;;22.90;99.90;;;;;;5072578;28;20203;-84
2021/07/11 00:33:49;;;;;;;3.80;3.45;;;22.40;99.90;;;;;;5053046;28;20453;-84
2021/07/11 00:36:15;;;;;;;4.97;4.20;;;22.70;99.90;;;;;;5058717;28;20195;-87
2021/07/11 00:38:42;;;;;;;3.77;3.47;;;22.90;99.90;;;;;;5073528;28;20449;-84
2021/07/11 00:41:09;;;;;;;4.25;3.85;;;22.50;99.90;;;;;;5057330;28;20445;-85
2021/07/11 00:43:36;;;;;;;4.97;4.40;;;22.30;99.90;;;;;;5073623;28;20198;-85
2021/07/11 00:46:02;;;;;;;4.37;3.97;;;22.40;99.90;;;;;;5073565;28;20198;-85
2021/07/11 00:48:30;;;;;;;3.83;3.53;;;22.20;99.90;;;;;;5061554;28;20488;-86
2021/07/11 00:50:57;;;;;;;4.88;4.35;;;22.50;99.90;;;;;;5065027;28;20476;-83
2021/07/11 00:53:24;;;;;;;5.07;4.67;;;22.30;99.90;;;;;;5072801;28;20226;-86
2021/07/11 00:55:51;;;;;;;4.17;3.77;;;22.40;99.90;;;;;;5072997;28;20449;-84
2021/07/11 00:58:18;;;;;;;3.95;3.60;;;22.20;99.90;;;;;;5063034;28;20442;-85
2021/07/11 01:00:49;;;;;;;4.57;4.17;;;23.20;99.90;;;;;;5061269;28;20204;-85
2021/07/11 01:03:23;;;;;;;4.20;3.80;;;22.30;99.90;;;;;;5049629;28;20834;-85
2021/07/11 01:05:51;;;;;;;4.80;4.40;;;22.60;99.90;;;;;;5060526;28;20203;-80
2021/07/11 01:08:26;;;;;;;4.50;3.93;;;22.20;99.90;;;;;;5052827;28;20481;-84
2021/07/11 01:11:01;;;;;;;5.40;4.70;;;22.20;99.90;;;;;;5056582;28;20438;-84
2021/07/11 01:13:29;;;;;;;4.60;3.90;;;22.60;99.90;;;;;;5053187;28;20199;-85
2021/07/11 01:16:00;;;;;;;5.10;4.60;;;22.40;99.90;;;;;;5055675;28;20658;-85
2021/07/11 01:18:27;;;;;;;4.82;4.43;;;22.30;99.90;;;;;;5052702;28;20203;-84
2021/07/11 01:21:01;;;;;;;4.93;4.43;;;22.10;99.90;;;;;;5052555;28;20657;-82
2021/07/11 01:23:37;;;;;;;3.85;3.55;;;22.10;99.90;;;;;;5052502;28;20557;-81
2021/07/11 01:26:07;;;;;;;5.22;4.72;;;22.50;99.90;;;;;;5052685;28;20548;-85
2021/07/11 01:28:35;;;;;;;4.90;4.50;;;22.30;99.90;;;;;;5052365;28;20211;-83
2021/07/11 01:31:02;;;;;;;4.22;3.92;;;22.10;99.90;;;;;;5071233;28;20194;-81
2021/07/11 01:33:31;;;;;;;4.22;3.83;;;22.10;99.90;;;;;;5071011;28;20203;-79
2021/07/11 01:35:59;;;;;;;5.50;4.18;;;22.00;99.90;;;;;;5053034;28;20203;-82
2021/07/11 01:38:27;;;;;;;4.70;4.30;;;22.60;99.90;;;;;;5064962;28;20474;-81
2021/07/11 01:40:54;;;;;;;6.72;4.90;;;22.00;99.90;;;;;;5072799;28;20445;-81
2021/07/11 01:43:23;;;;;;;4.93;4.47;;;22.20;99.90;;;;;;5072672;28;20224;-79
2021/07/11 01:45:52;;;;;;;5.38;4.75;;;22.10;99.90;;;;;;5060849;28;20199;-82
2021/07/11 01:48:19;;;;;;;4.88;4.25;;;22.10;99.90;;;;;;5053642;28;20230;-83
2021/07/11 01:50:51;;;;;;;5.05;4.50;;;22.10;99.90;;;;;;5052864;28;20557;-83
2021/07/11 01:53:18;;;;;;;5.00;4.50;;;22.20;99.90;;;;;;5052779;28;20284;-83
2021/07/11 01:55:45;;;;;;;4.68;4.22;;;22.10;99.90;;;;;;5062673;28;20203;-80
2021/07/11 01:58:12;;;;;;;4.60;4.18;;;21.90;99.90;;;;;;5072073;28;20187;-81
2021/07/11 02:00:40;;;;;;;5.05;4.65;;;22.10;99.90;;;;;;5072514;28;20207;-86
2021/07/11 02:03:16;;;;;;;4.90;4.30;;;22.20;99.90;;;;;;5072548;28;20209;-84
2021/07/11 02:05:43;;;;;;;5.18;4.68;;;22.10;99.90;;;;;;5073790;28;20480;-88
2021/07/11 02:08:10;;;;;;;5.40;4.32;;;21.90;99.90;;;;;;5073216;28;20612;-87
2021/07/11 02:10:38;;;;;;;4.65;4.25;;;22.00;99.90;;;;;;5075477;28;20225;-83
2021/07/11 02:13:11;;;;;;;5.57;5.13;;;22.00;99.90;;;;;;5075023;28;20641;-80
2021/07/11 02:15:42;;;;;;;6.10;5.50;;;21.90;99.90;;;;;;5075247;28;20272;-80
2021/07/11 02:18:10;;;;;;;7.25;5.70;;;21.90;99.90;;;;;;5067313;28;20407;-80
2021/07/11 02:20:37;;;;;;;5.50;5.03;;;21.90;99.90;;;;;;5055105;28;20207;-81
2021/07/11 02:23:05;;;;;;;5.57;5.07;;;21.90;99.90;;;;;;5055059;28;20231;-80
2021/07/11 02:25:32;;;;;;;5.03;4.63;;;21.60;99.90;;;;;;5054676;28;20211;-79
2021/07/11 02:27:59;;;;;;;5.18;4.68;;;21.80;99.90;;;;;;5065832;28;20215;-79
2021/07/11 02:30:29;;;;;;;5.10;4.70;;;21.70;99.90;;;;;;5054887;28;20651;-80
2021/07/11 02:32:57;;;;;;;4.82;4.32;;;21.70;99.90;;;;;;5056119;28;20623;-79
2021/07/11 02:35:30;;;;;;;4.57;4.18;;;21.70;99.90;;;;;;5055381;28;20215;-82
2021/07/11 02:38:00;;;;;;;5.38;4.28;;;21.70;99.90;;;;;;5060374;28;20260;-80
2021/07/11 02:40:27;;;;;;;4.70;4.40;;;21.60;99.90;;;;;;5076075;28;20210;-85
2021/07/11 02:42:57;;;;;;;6.47;5.15;;;22.10;99.90;;;;;;5076468;28;20214;-82
2021/07/11 02:45:25;;;;;;;5.60;5.10;;;22.00;99.90;;;;;;5062720;28;20261;-83
2021/07/11 02:47:52;;;;;;;4.57;4.18;;;21.70;99.90;;;;;;5057845;28;20211;-83
2021/07/11 02:50:21;;;;;;;5.72;4.80;;;22.10;99.90;;;;;;5062164;28;20199;-83
2021/07/11 02:52:47;;;;;;;5.90;5.40;;;21.60;99.90;;;;;;5076431;28;20214;-83
2021/07/11 02:55:18;;;;;;;5.40;4.90;;;21.80;99.90;;;;;;5075745;28;20658;-85
2021/07/11 02:57:50;;;;;;;6.05;5.43;;;21.60;99.90;;;;;;5066903;28;20203;-88
2021/07/11 03:00:17;;;;;;;5.72;5.18;;;21.70;99.90;;;;;;5072325;28;20542;-87
2021/07/11 03:02:45;;;;;;;5.68;4.70;;;21.70;99.90;;;;;;5068102;28;20642;-87
2021/07/11 03:05:15;;;;;;;6.22;4.80;;;21.70;99.90;;;;;;5055013;28;20207;-87
2021/07/11 03:07:43;;;;;;;6.35;5.65;;;21.50;99.90;;;;;;5056018;28;20219;-88
2021/07/11 03:10:11;;;;;;;7.15;6.18;;;22.00;99.90;;;;;;5055139;28;20203;-86
2021/07/11 03:12:39;;;;;;;6.47;5.75;;;21.70;99.90;;;;;;5054562;28;20211;-87
2021/07/11 03:15:06;;;;;;;6.03;5.53;;;22.50;99.90;;;;;;5062346;28;20200;-88
2021/07/11 03:17:34;;;;;;;7.38;5.15;;;21.60;99.90;;;;;;5053852;28;20203;-83
2021/07/11 03:20:04;;;;;;;8.13;6.10;;;21.60;99.90;;;;;;5075691;28;20190;-89
2021/07/11 03:22:33;;;;;;;6.25;5.75;;;21.60;99.90;;;;;;5081589;28;20223;-88
2021/07/11 03:25:04;;;;;;;6.75;6.15;;;21.60;99.90;;;;;;5078451;28;20198;-89
2021/07/11 03:27:31;;;;;;;6.45;5.85;;;21.60;99.90;;;;;;5063226;28;20190;-89
2021/07/11 03:30:04;;;;;;;9.55;6.53;;;21.50;99.90;;;;;;5075954;28;20203;-84
2021/07/11 03:32:35;;;;;;;6.63;5.93;;;21.50;99.90;;;;;;5072648;28;20331;-83
2021/07/11 03:35:03;;;;;;;7.32;5.82;;;21.50;99.90;;;;;;5057440;28;20683;-85
2021/07/11 03:37:35;;;;;;;7.68;6.60;;;21.50;99.90;;;;;;5055408;28;20203;-85
2021/07/11 03:40:05;;;;;;;6.20;5.70;;;21.40;99.90;;;;;;5074186;28;20202;-84
2021/07/11 03:42:34;;;;;;;7.55;6.85;;;21.50;99.90;;;;;;5074279;28;20206;-84
2021/07/11 03:45:03;;;;;;;7.70;6.50;;;21.50;99.90;;;;;;5058068;28;20192;-87
2021/07/11 03:47:37;;;;;;;7.72;6.45;;;21.50;99.90;;;;;;5054922;28;20218;-86
2021/07/11 03:50:06;;;;;;;6.25;5.65;;;21.50;99.90;;;;;;5059059;28;20195;-83
2021/07/11 03:52:38;;;;;;;7.22;6.53;;;21.50;99.90;;;;;;5054342;28;20217;-83
2021/07/11 03:55:08;;;;;;;5.40;4.90;;;21.50;99.90;;;;;;5054794;28;20638;-85
2021/07/11 03:57:37;;;;;;;6.20;5.65;;;21.40;99.90;;;;;;5070468;28;20191;-83
2021/07/11 04:00:05;;;;;;;7.05;6.28;;;21.40;99.90;;;;;;5063504;28;20191;-84
2021/07/11 04:02:34;;;;;;;7.28;5.43;;;21.40;99.90;;;;;;5054331;28;20268;-84
2021/07/11 04:05:02;;;;;;;6.50;5.85;;;21.50;99.90;;;;;;5053847;28;20203;-81
2021/07/11 04:07:30;;;;;;;7.38;6.63;;;21.40;99.90;;;;;;5053122;28;20210;-82
2021/07/11 04:09:58;;;;;;;6.25;5.57;;;21.30;99.90;;;;;;5055830;28;20218;-80
2021/07/11 04:12:26;;;;;;;6.25;5.45;;;21.40;99.90;;;;;;5059754;28;20207;-80
2021/07/11 04:14:53;;;;;;;5.20;4.65;;;21.30;99.90;;;;;;5054569;28;20202;-87
2021/07/11 04:17:23;;;;;;;5.80;5.20;;;21.20;99.90;;;;;;5055920;28;20207;-86
2021/07/11 04:19:55;;;;;;;5.38;4.88;;;21.30;99.90;;;;;;5056201;28;20203;-86
2021/07/11 04:22:23;;;;;;;5.28;4.50;;;21.50;99.90;;;;;;5055967;28;20639;-92
2021/07/11 04:24:51;;;;;;;5.53;5.00;;;21.10;99.90;;;;;;5067541;28;20195;-92
2021/07/11 04:27:19;;;;;;;5.35;4.85;;;21.20;99.90;;;;;;5065363;28;20221;-91
2021/07/11 04:29:50;;;;;;;5.45;4.95;;;21.30;99.90;;;;;;5081660;28;20233;-92
2021/07/11 04:32:21;;;;;;;5.45;4.95;;;21.20;99.90;;;;;;5083904;28;20566;-92
2021/07/11 04:34:49;;;;;;;4.75;4.32;;;21.20;99.90;;;;;;5086532;28;20202;-93
2021/07/11 04:37:16;;;;;;;5.28;4.85;;;21.00;99.90;;;;;;5082055;28;20254;-92
2021/07/11 04:39:43;;;;;;;5.38;4.50;;;21.20;99.90;;;;;;5075793;28;20207;-93
2021/07/11 04:42:11;;;;;;;6.85;5.57;;;21.20;99.90;;;;;;5073615;28;20195;-87
2021/07/11 04:44:38;;;;;;;5.82;5.22;;;21.20;99.90;;;;;;5070123;28;20194;-88
2021/07/11 04:47:06;;;;;;;6.45;4.90;;;21.30;99.90;;;;;;5075644;28;20622;-87
2021/07/11 04:49:33;;;;;;;4.95;4.45;;;21.20;99.90;;;;;;5065599;28;20234;-89
2021/07/11 04:52:00;;;;;;;5.75;5.15;;;21.60;99.90;;;;;;5065162;28;20229;-87
2021/07/11 04:54:26;;;;;;;5.55;4.85;;;21.40;99.90;;;;;;5062327;28;20195;-85
2021/07/11 04:56:53;;;;;;;5.60;5.10;;;21.10;99.90;;;;;;5061638;28;20190;-86
2021/07/11 04:59:20;;;;;;;7.60;4.95;;;21.20;99.90;;;;;;5069851;28;20202;-87
2021/07/11 05:01:47;;;;;;;5.55;5.05;;;21.20;99.90;;;;;;5073772;28;20533;-88
2021/07/11 05:04:15;;;;;;;6.97;5.35;;;21.10;99.90;;;;;;5074512;28;20209;-89
2021/07/11 05:06:42;;;;;;;4.13;3.78;;;20.90;99.90;;;;;;5074378;28;20194;-85
2021/07/11 05:09:09;;;;;;;5.10;4.60;;;21.10;99.90;;;;;;5058345;28;20307;-88
2021/07/11 05:11:36;;;;;;;8.35;4.80;;;20.80;99.90;;;;;;5075686;28;20195;-89
2021/07/11 05:14:04;;;;;;;5.63;5.13;;;21.10;99.90;;;;;;5077313;28;20212;-89
2021/07/11 05:16:31;;;;;;;6.13;4.90;;;21.10;99.90;;;;;;5076949;28;20199;-89
2021/07/11 05:18:58;;;;;;;5.68;4.55;;;21.70;99.90;;;;;;5062484;28;20196;-88
2021/07/11 05:21:26;;;;;;;4.57;4.18;;;21.10;99.90;;;;;;5055639;28;20256;-84
2021/07/11 05:23:53;;;;;;;4.97;4.47;;;21.00;99.90;;;;;;5076385;28;20227;-90
2021/07/11 05:26:20;;;;;;;4.57;4.05;;;20.90;99.90;;;;;;5078471;28;20191;-91
2021/07/11 05:28:46;;;;;;;4.43;4.03;;;21.00;99.90;;;;;;5065629;28;20218;-88
2021/07/11 05:31:13;;;;;;;4.80;4.30;;;21.10;99.90;;;;;;5058489;28;20206;-87
2021/07/11 05:33:40;;;;;;;5.13;4.47;;;21.20;99.90;;;;;;5056822;28;20199;-87
2021/07/11 05:36:08;;;;;;;5.75;5.10;;;21.30;99.90;;;;;;5058651;28;20528;-89
2021/07/11 05:38:37;;;;;;;4.68;4.28;;;21.00;99.90;;;;;;5069780;28;20187;-88
2021/07/11 05:41:04;;;;;;;6.25;4.70;;;21.00;99.90;;;;;;5064306;28;20205;-85
2021/07/11 05:43:31;;;;;;;4.15;3.83;;;21.00;99.90;;;;;;5073839;28;20195;-84
2021/07/11 05:45:58;;;;;;;4.78;4.38;;;21.00;99.90;;;;;;5076968;28;20216;-88
2021/07/11 05:48:25;;;;;;;3.95;3.55;;;21.10;99.90;;;;;;5081475;28;20205;-89
2021/07/11 05:50:52;;;;;;;4.43;4.03;;;20.90;99.90;;;;;;5076978;28;20206;-84
2021/07/11 05:53:19;;;;;;;5.22;4.72;;;20.90;99.90;;;;;;5074783;28;20209;-85
2021/07/11 05:55:47;;;;;;;4.78;4.38;;;20.90;99.90;;;;;;5076635;28;20210;-85
2021/07/11 05:58:14;;;;;;;4.80;4.40;;;21.00;99.90;;;;;;5065429;28;20593;-88
2021/07/11 06:00:42;;;;;;;5.40;4.45;;;20.80;99.90;;;;;;5058403;28;20226;-88
2021/07/11 06:03:08;;;;;;;4.63;4.15;;;20.70;99.90;;;;;;5061242;28;20204;-88
2021/07/11 06:05:37;;;;;;;4.03;3.55;;;20.90;99.90;;;;;;5067250;28;20198;-85
2021/07/11 06:08:05;;;;;;;4.50;4.03;;;21.30;99.90;;;;;;5076597;28;20630;-89
2021/07/11 06:10:32;;;;;;;4.53;4.13;;;20.90;99.90;;;;;;5072859;28;20220;-90
2021/07/11 06:13:00;;;;;;;3.95;3.65;;;20.90;99.90;;;;;;5062002;28;20203;-90
2021/07/11 06:15:27;;;;;;;3.97;3.58;;;20.90;99.90;;;;;;5067622;28;20209;-87
2021/07/11 06:17:54;;;;;;;4.88;4.40;;;20.90;99.90;;;;;;5071231;28;20538;-87
2021/07/11 06:20:22;;;;;;;4.85;4.05;;;21.50;99.90;;;;;;5072629;28;20191;-83
2021/07/11 06:22:49;;;;;;;3.83;3.53;;;20.80;99.90;;;;;;5062359;28;20250;-87
2021/07/11 06:25:16;;;;;;;4.45;4.05;;;20.80;99.90;;;;;;5065594;28;20214;-80
2021/07/11 06:27:44;;;;;;;4.22;3.92;;;20.80;99.90;;;;;;5060889;28;20199;-84
2021/07/11 06:30:15;;;;;;;8.02;3.65;;;20.80;99.90;;;;;;5070037;28;20307;-83
2021/07/11 06:32:43;;;;;;;7.50;4.05;;;20.90;99.90;;;;;;5056091;28;20214;-83
2021/07/11 06:35:11;;;;;;;4.28;3.88;;;20.90;99.90;;;;;;5055913;28;20203;-82
2021/07/11 06:37:38;;;;;;;4.63;4.22;;;20.90;99.90;;;;;;5060423;28;20186;-82
2021/07/11 06:40:06;;;;;;;5.85;4.95;;;20.70;99.90;;;;;;5075537;28;20195;-83
2021/07/11 06:42:33;;;;;;;5.13;4.43;;;20.80;99.90;;;;;;5080668;28;20203;-86
2021/07/11 06:45:01;;;;;;;4.00;3.60;;;20.80;99.90;;;;;;5081852;28;20221;-90
2021/07/11 06:47:29;;;;;;;4.40;3.97;;;21.10;99.90;;;;;;5082035;28;20206;-90
2021/07/11 06:49:56;;;;;;;3.67;3.38;;;20.70;99.90;;;;;;5086172;28;20259;-90
2021/07/11 06:52:23;;;;;;;5.88;3.60;;;20.80;99.90;;;;;;5079876;28;20217;-84
2021/07/11 06:54:51;;;;;;;4.20;3.90;;;21.00;99.90;;;;;;5076207;28;20637;-84
2021/07/11 06:57:18;;;;;;;5.05;4.55;;;20.90;99.90;;;;;;5062442;28;20199;-84
2021/07/11 06:59:44;;;;;;;7.70;7.00;;;20.80;99.90;;;;;;5059100;28;20202;-83
2021/07/11 07:02:11;;;;;;;7.28;5.72;;;20.80;99.90;;;;;;5076157;28;20199;-84
2021/07/11 07:04:39;;;;;;;9.00;6.40;;;20.60;99.90;;;;;;5079323;28;20202;-84
2021/07/11 07:07:06;;;;;;;6.60;5.93;;;20.60;99.90;;;;;;5063930;28;20195;-84
2021/07/11 07:09:32;;;;;;;8.68;7.88;;;20.80;99.90;;;;;;5054991;28;20233;-83
2021/07/11 07:11:59;;;;;;;9.55;6.78;;;20.80;99.90;;;;;;5055851;28;20203;-84
2021/07/11 07:14:26;;;;;;;6.43;5.80;;;20.80;99.90;;;;;;5062734;28;20244;-84
2021/07/11 07:16:53;;;;;;;6.40;5.38;;;20.70;99.90;;;;;;5074556;28;20203;-85
2021/07/11 07:19:19;;;;;;;5.45;4.95;;;20.70;99.90;;;;;;5067684;28;20278;-85
2021/07/11 07:21:47;;;;;;;5.38;4.88;;;20.80;99.90;;;;;;5061150;28;20198;-85
2021/07/11 07:24:15;;;;;;;8.90;5.13;;;20.80;99.90;;;;;;5054791;28;20214;-85
2021/07/11 07:26:42;;;;;;;4.90;3.95;;;21.00;99.90;;;;;;5054447;28;20200;-85
2021/07/11 07:29:08;;;;;;;6.28;5.20;;;20.80;99.90;;;;;;5054141;28;20234;-83
2021/07/11 07:31:36;;;;;;;5.00;4.50;;;20.80;99.90;;;;;;5054336;28;20210;-83
2021/07/11 07:34:03;;;;;;;4.72;4.32;;;20.90;99.90;;;;;;5077957;28;20267;-89
2021/07/11 07:36:30;;;;;;;7.28;5.55;;;20.90;99.90;;;;;;5077124;28;20229;-84
2021/07/11 07:38:58;;;;;;;6.03;5.53;;;21.00;99.90;;;;;;5074739;28;20209;-83
2021/07/11 07:41:26;;;;;;;5.40;4.90;;;20.60;99.90;;;;;;5074751;28;20580;-82
2021/07/11 07:43:53;;;;;;;8.07;7.05;;;20.60;99.90;;;;;;5055387;28;20211;-85
2021/07/11 07:46:19;;;;;;;7.57;5.22;;;20.80;99.90;;;;;;5054938;28;20645;-84
2021/07/11 07:48:46;;;;;;;4.90;4.40;;;20.90;99.90;;;;;;5054518;28;20215;-83
2021/07/11 07:51:13;;;;;;;5.15;4.25;;;20.90;99.90;;;;;;5054910;28;20681;-86
2021/07/11 07:53:40;;;;;;;5.93;5.25;;;20.90;99.90;;;;;;5071770;28;20194;-84
2021/07/11 07:56:08;;;;;;;5.28;4.80;;;20.90;99.90;;;;;;5074802;28;20213;-83
2021/07/11 07:58:34;;;;;;;4.75;4.22;;;20.80;99.90;;;;;;5084298;28;20194;-91
2021/07/11 08:01:01;;;;;;;4.63;4.22;;;20.90;99.90;;;;;;5078475;28;20191;-94
2021/07/11 08:03:28;;;;;;;4.60;4.20;;;20.80;99.90;;;;;;5079772;28;20201;-94
2021/07/11 08:05:55;;;;;;;4.97;4.55;;;20.90;99.90;;;;;;5060745;28;20210;-85
2021/07/11 08:08:22;;;;;;;4.38;3.97;;;20.90;99.90;;;;;;5059058;28;20192;-83
2021/07/11 08:10:49;;;;;;;4.72;4.32;;;20.90;99.90;;;;;;5051913;28;20591;-81
2021/07/11 08:13:18;;;;;;;5.50;4.90;;;21.30;99.90;;;;;;5051011;28;20585;-84
2021/07/11 08:15:44;;;;;;;6.90;5.72;;;20.90;99.90;;;;;;5051471;28;20203;-83
2021/07/11 08:18:11;;;;;;;6.25;5.65;;;21.00;99.90;;;;;;5051804;28;20206;-84
2021/07/11 08:20:37;;;;;;;5.53;5.03;;;21.00;99.90;;;;;;5054711;28;20203;-84
2021/07/11 08:23:04;;;;;;;4.50;4.10;;;20.90;99.90;;;;;;5071210;28;20223;-84
2021/07/11 08:25:31;;;;;;;6.18;5.63;;;21.20;99.90;;;;;;5054940;28;20200;-84
2021/07/11 08:27:58;;;;;;;5.95;5.38;;;21.20;99.90;;;;;;5053986;28;20257;-84
2021/07/11 08:30:26;;;;;;;5.65;4.90;;;21.30;99.90;;;;;;5053891;28;20219;-83
2021/07/11 08:32:53;;;;;;;6.35;5.53;;;21.30;99.90;;;;;;5054532;28;20257;-83
2021/07/11 08:35:20;;;;;;;5.97;5.07;;;21.20;99.90;;;;;;5058741;28;20192;-83
2021/07/11 08:37:46;;;;;;;5.78;5.32;;;21.40;99.90;;;;;;5053995;28;20196;-83
2021/07/11 08:40:14;;;;;;;6.50;5.90;;;21.10;99.90;;;;;;5066822;28;20517;-83
2021/07/11 08:42:41;;;;;;;5.60;5.18;;;21.50;99.90;;;;;;5053567;28;20199;-83
2021/07/11 08:45:09;;;;;;;6.80;6.20;;;21.50;99.90;;;;;;5069845;28;20554;-82
2021/07/11 08:47:38;;;;;;;6.25;5.75;;;21.50;99.90;;;;;;5072057;28;20213;-83
2021/07/11 08:50:07;;;;;;;6.97;6.20;;;21.80;99.90;;;;;;5054780;28;20214;-83
2021/07/11 08:52:35;;;;;;;6.45;5.85;;;21.60;99.90;;;;;;5066062;28;20228;-83
2021/07/11 08:55:02;;;;;;;6.97;6.28;;;21.70;99.90;;;;;;5070312;28;20518;-83
2021/07/11 08:57:29;;;;;;;5.82;5.38;;;21.80;99.90;;;;;;5073369;28;20203;-83
2021/07/11 08:59:56;;;;;;;6.55;5.85;;;22.00;99.90;;;;;;5071492;28;20203;-83
2021/07/11 09:02:22;;;;;;;4.70;4.30;;;22.50;99.90;;;;;;5062019;28;20211;-83
2021/07/11 09:04:50;;;;;;;5.33;4.83;;;22.40;99.90;;;;;;5053392;28;20453;-84
2021/07/11 09:07:18;;;;;;;5.57;5.07;;;22.50;99.90;;;;;;5053302;28;20457;-83
2021/07/11 09:09:45;;;;;;;5.50;5.00;;;22.50;99.90;;;;;;5053123;28;20545;-83
2021/07/11 09:12:13;;;;;;;5.13;4.73;;;22.40;99.90;;;;;;5060517;28;20802;-83
2021/07/11 09:14:42;;;;;;;5.83;5.33;;;22.80;99.90;;;;;;5053933;28;20519;-85
2021/07/11 09:17:10;;;;;;;5.20;4.80;;;22.60;99.90;;;;;;5058916;28;20450;-83
2021/07/11 09:19:41;;;;;;;5.67;5.20;;;22.70;99.90;;;;;;5057899;28;20441;-84
2021/07/11 09:22:10;;;;;;;8.93;4.27;;;22.60;99.90;;;;;;5051834;28;20485;-82
2021/07/11 09:24:46;;;;;;;5.83;4.73;;;22.70;99.90;;;;;;5051542;28;20442;-79
2021/07/11 09:27:14;;;;;;;5.70;5.23;;;22.70;99.90;;;;;;5054925;28;20452;-80
2021/07/11 09:29:43;;;;;;;4.93;4.53;;;23.10;99.90;;;;;;5061140;28;20465;-79
2021/07/11 09:32:21;;;;;;;7.80;5.83;;;22.70;99.90;;;;;;5057856;28;20633;-80
2021/07/11 09:34:48;;;;;;;4.77;4.37;;;22.70;99.90;;;;;;5056907;28;20444;-80
2021/07/11 09:37:18;;;;;;;6.43;5.83;;;22.80;99.90;;;;;;5054220;28;20442;-78
2021/07/11 09:39:47;;;;;;;5.33;4.83;;;22.80;99.90;;;;;;5067925;28;20437;-79
2021/07/11 09:42:24;;;;;;;5.10;4.70;;;22.80;99.90;;;;;;5071777;28;20441;-79
2021/07/11 09:44:51;;;;;;;5.90;5.50;;;23.30;99.90;;;;;;5049932;28;20481;-80
2021/07/11 09:47:20;;;;;;;4.53;4.13;;;23.30;99.90;;;;;;5069608;28;20468;-85
2021/07/11 09:49:57;;;;;;;5.10;4.70;;;23.20;99.90;;;;;;5056711;28;20493;-82
2021/07/11 09:52:26;;;;;;;5.50;5.00;;;23.00;99.90;;;;;;5053318;28;20527;-82
2021/07/11 09:54:57;;;;;;;6.20;5.70;;;23.00;99.90;;;;;;5066500;28;20885;-79
2021/07/11 09:57:34;;;;;;;6.30;5.80;;;23.10;99.90;;;;;;5053817;28;20434;-85
2021/07/11 10:00:18;;;;;;;7.00;6.40;;;23.10;99.90;;;;;;5053109;28;20750;-78
2021/07/11 10:02:46;;;;;;;6.43;5.83;;;23.10;99.90;;;;;;5053169;28;20453;-80
2021/07/11 10:05:14;;;;;;;7.17;6.57;;;23.20;99.90;;;;;;5061305;28;20449;-81
2021/07/11 10:07:42;;;;;;;5.87;5.37;;;23.10;99.90;;;;;;5056529;28;20441;-83
2021/07/11 10:10:11;;;;;;;6.43;5.83;;;23.10;99.90;;;;;;5072030;28;20476;-85
2021/07/11 10:12:39;;;;;;;6.17;5.57;;;23.10;99.90;;;;;;5072030;28;20444;-88
2021/07/11 10:15:11;;;;;;;8.40;7.70;;;23.10;99.90;;;;;;5066310;28;20459;-78
2021/07/11 10:17:45;;;;;;;5.63;5.13;;;23.20;99.90;;;;;;5070389;28;20449;-76
2021/07/11 10:20:14;;;;;;;7.00;6.40;;;23.50;99.90;;;;;;5072538;28;20881;-86
2021/07/11 10:22:48;;;;;;;6.40;5.80;;;23.30;99.90;;;;;;5071471;28;20473;-82
2021/07/11 10:25:19;;;;;;;7.67;6.87;;;23.70;99.90;;;;;;5064286;28;20434;-86
2021/07/11 10:27:46;;;;;;;7.57;6.87;;;23.40;99.90;;;;;;5064310;28;20452;-82
2021/07/11 10:30:14;;;;;;;7.83;7.13;;;23.20;99.90;;;;;;5075442;28;20488;-85
2021/07/11 10:32:41;;;;;;;7.27;6.57;;;23.50;99.90;;;;;;5075395;28;20445;-83
2021/07/11 10:35:16;;;;;;;7.03;6.43;;;23.50;99.90;;;;;;5069258;28;20738;-82
2021/07/11 10:37:53;;;;;;;8.67;7.87;;;23.60;99.90;;;;;;5061068;28;20446;-81
2021/07/11 10:40:28;;;;;;;8.33;7.50;;;23.50;99.90;;;;;;5075031;28;20440;-77
2021/07/11 10:42:55;;;;;;;7.30;6.70;;;23.80;99.90;;;;;;5076526;28;20439;-90
2021/07/11 10:45:24;;;;;;;8.50;7.70;;;23.50;99.90;;;;;;5067710;28;20442;-88
2021/07/11 10:47:51;;;;;;;9.27;8.40;;;23.50;99.90;;;;;;5057381;28;20904;-92
2021/07/11 10:50:27;;;;;;;7.93;7.20;;;23.50;99.90;;;;;;5076526;28;20495;-78
2021/07/11 10:52:56;;;;;;;9.50;8.67;;;23.40;99.90;;;;;;5074372;28;21021;-78
2021/07/11 10:55:43;;;;;;;9.40;8.53;;;23.50;99.90;;;;;;5066497;28;20450;-80
2021/07/11 10:58:14;;;;;;;7.50;6.80;;;23.60;99.90;;;;;;5055833;28;20450;-86
2021/07/11 11:00:42;;;;;;;9.80;8.87;;;23.50;99.90;;;;;;5056369;28;20445;-85
2021/07/11 11:03:18;;;;;;;8.70;7.90;;;23.40;99.90;;;;;;5071488;28;20445;-79
2021/07/11 11:05:47;;;;;;;11.67;10.47;;;23.40;99.90;;;;;;5068724;28;20456;-81
2021/07/11 11:08:22;;;;;;;9.00;8.20;;;23.40;99.90;;;;;;5075216;28;20936;-82
2021/07/11 11:10:52;;;;;;;10.53;9.63;;;23.20;99.90;;;;;;5075534;28;20966;-83
2021/07/11 11:13:25;;;;;;;9.60;8.70;;;23.40;99.90;;;;;;5074116;28;20449;-83
2021/07/11 11:15:53;;;;;;;10.90;9.90;;;23.30;99.90;;;;;;5072307;28;20959;-79
2021/07/11 11:18:38;;;;;;;9.60;8.70;;;23.30;99.90;;;;;;5067702;28;20450;-84
2021/07/11 11:21:07;;;;;;;10.53;9.53;;;23.30;99.90;;;;;;5055333;28;20831;-82
2021/07/11 11:23:38;;;;;;;13.87;12.57;;;23.70;99.90;;;;;;5054680;28;20488;-81
2021/07/11 11:26:06;;;;;;;14.03;12.47;;;23.60;99.90;;;;;;5059814;28;20453;-83
2021/07/11 11:28:35;;;;;;;10.67;9.67;;;23.60;99.90;;;;;;5067969;28;20476;-78
2021/07/11 11:31:06;;;;;;;10.93;10.03;;;23.70;99.90;;;;;;5067708;28;20492;-83
2021/07/11 11:33:45;;;;;;;11.47;10.43;;;23.60;99.90;;;;;;5055224;28;20808;-82
2021/07/11 11:36:12;;;;;;;12.17;10.77;;;23.70;99.90;;;;;;5053198;28;20445;-80
2021/07/11 11:38:43;;;;;;;11.17;10.07;;;23.70;99.90;;;;;;5056835;28;20449;-81
2021/07/11 11:41:13;;;;;;;11.77;10.67;;;23.80;99.90;;;;;;5057749;28;20449;-79
2021/07/11 11:43:41;;;;;;;11.77;10.57;;;23.60;99.90;;;;;;5060612;28;20457;-81
2021/07/11 11:46:07;;;;;;;12.90;11.60;;;24.00;99.90;;;;;;5054539;28;20540;-81
2021/07/11 11:48:34;;;;;;;10.53;9.53;;;23.80;99.90;;;;;;5053909;28;20442;-82
2021/07/11 11:51:03;;;;;;;10.10;9.10;;;23.80;99.90;;;;;;5053677;28;20469;-81
2021/07/11 11:53:29;;;;;;;11.67;10.63;;;23.70;99.90;;;;;;5053823;28;20461;-79
2021/07/11 11:55:58;;;;;;;9.57;8.73;;;23.80;99.90;;;;;;5055343;28;20446;-84
2021/07/11 11:58:26;;;;;;;11.70;10.60;;;24.50;99.90;;;;;;5071417;28;20441;-85
2021/07/11 12:01:00;;;;;;;10.87;9.83;;;23.80;99.90;;;;;;5071652;28;20446;-84
2021/07/11 12:03:26;;;;;;;12.23;10.97;;;23.90;99.90;;;;;;5054282;28;20488;-84
2021/07/11 12:05:53;;;;;;;10.80;9.67;;;23.80;99.90;;;;;;5065550;28;20487;-85
2021/07/11 12:08:20;;;;;;;15.40;13.77;;;23.90;99.90;;;;;;5064499;28;20446;-82
2021/07/11 12:10:48;;;;;;;13.07;11.80;;;24.50;99.90;;;;;;5066208;28;20589;-80
2021/07/11 12:13:23;;;;;;;15.70;14.20;;;24.10;99.90;;;;;;5065224;28;20468;-77
2021/07/11 12:15:51;;;;;;;15.57;13.90;;;23.90;99.90;;;;;;5071740;28;20433;-81
2021/07/11 12:18:18;;;;;;;12.20;11.00;;;23.80;99.90;;;;;;5054468;28;20911;-78
2021/07/11 12:20:52;;;;;;;14.00;12.60;;;23.90;99.90;;;;;;5064227;28;20508;-79
2021/07/11 12:23:19;;;;;;;14.87;13.37;;;23.80;99.90;;;;;;5060714;28;20473;-78
2021/07/11 12:25:57;;;;;;;14.73;13.23;;;23.90;99.90;;;;;;5058399;28;20464;-76
2021/07/11 12:28:25;;;;;;;16.50;14.90;;;24.00;99.90;;;;;;5064653;28;20446;-77
2021/07/11 12:30:54;;;;;;;16.80;15.10;;;24.10;99.90;;;;;;5073436;28;20798;-79
2021/07/11 12:33:27;;;;;;;15.47;13.97;;;24.00;99.90;;;;;;5074163;28;20449;-86
2021/07/11 12:35:58;;;;;;;14.53;13.13;;;23.50;99.90;;;;;;5073912;28;20436;-83
2021/07/11 12:38:33;;;;;;;13.90;12.60;;;23.90;99.90;;;;;;5068466;28;20503;-76
2021/07/11 12:41:09;;;;;;;14.70;13.20;;;24.10;99.90;;;;;;5063703;28;20931;-91
2021/07/11 12:43:49;;;;;;;12.87;11.70;;;23.90;99.90;;;;;;5056569;28;20473;-78
2021/07/11 12:46:17;;;;;;;14.60;13.23;;;23.90;99.90;;;;;;5073440;28;20822;-76
2021/07/11 12:48:47;;;;;;;13.37;12.00;;;23.80;99.90;;;;;;5066973;28;20925;-76
2021/07/11 12:51:17;;;;;;;14.17;12.87;;;23.80;99.90;;;;;;5057411;28;20480;-79
2021/07/11 12:53:44;;;;;;;13.70;12.43;;;23.80;99.90;;;;;;5068877;28;20990;-86